Maersk Tangier — 9V3786 — position and weather

sailwx.info

Track history (hours):
 
Tides and Currents Weather Stations Pressure Air Temp Water Temp Dewpoint Dewpoint Depression Visibility Wind Speed Wind Dir Waves Ship Positions

Maersk Tangier

Last reported at 2018-Feb-16 09:50 UTC. Time now 2018-Feb-19 20:10 UTC.
Position N 55°50' E 017°02'.

Length 183 m; draft 10.3 m.

Type: Tanker. MMSI: 565036000.

Date/timePositionNaut miles runAvg speedWind from/ knotsBaromVisibWave heightAir tempDewpointWater temp
2018-Feb-16 09:50N 55°50' E 017°02'412.7
2018-Feb-16 09:30N 55°48' E 016°54'612.6
2018-Feb-16 09:00N 55°47' E 016°43'613.0
2018-Feb-16 08:30N 55°45' E 016°32'713.0
2018-Feb-16 08:00N 55°44' E 016°21'713.1
2018-Feb-16 07:30N 55°42' E 016°10'713.1
2018-Feb-16 07:00N 55°41' E 015°59'713.0
2018-Feb-16 06:30N 55°39' E 015°47'612.9
2018-Feb-16 06:00N 55°37' E 015°36'612.8
2018-Feb-16 05:30N 55°35' E 015°26'612.8
2018-Feb-16 05:00N 55°33' E 015°15'612.8
2018-Feb-16 04:30N 55°30' E 015°05'612.8
2018-Feb-16 04:00N 55°27' E 014°55'612.7
2018-Feb-16 03:30N 55°25' E 014°44'612.4
2018-Feb-16 03:00N 55°21' E 014°36'612.8
2018-Feb-16 02:30N 55°16' E 014°29'612.6
2018-Feb-16 02:00N 55°11' E 014°22'612.6
2018-Feb-16 01:30N 55°06' E 014°16'612.3
2018-Feb-16 01:00N 55°01' E 014°09'2212.0
2018-Feb-15 23:09N 54°54' E 013°32'2712.0
2018-Feb-15 20:54N 54°46' E 012°48'4 9.0
2018-Feb-15 20:30N 54°44' E 012°42'510.3
2018-Feb-15 20:00N 54°42' E 012°34'1612.5
2018-Feb-15 18:45N 54°31' E 012°15'313.1
2018-Feb-15 18:30N 54°28' E 012°13'611.4
2018-Feb-15 18:00N 54°25' E 012°05'1112.5
2018-Feb-15 17:07N 54°25' E 011°46'212.7
2018-Feb-15 16:59N 54°26' E 011°43'612.7
2018-Feb-15 16:30N 54°29' E 011°34'612.4
2018-Feb-15 16:00N 54°31' E 011°24'611.9
2018-Feb-15 15:30N 54°34' E 011°15'612.1
2018-Feb-15 15:00N 54°35' E 011°05'612.0
2018-Feb-15 14:30N 54°37' E 010°55'5 9.9
2018-Feb-15 14:00N 54°40' E 010°49'2 4.4
2018-Feb-15 13:30N 54°42' E 010°46'510.0
2018-Feb-15 13:00N 54°47' E 010°49'5 9.3
2018-Feb-15 12:30N 54°51' E 010°50'4 7.5
2018-Feb-15 12:00N 54°55' E 010°52'5 9.0
2018-Feb-15 11:30N 54°58' E 010°57'510.8
2018-Feb-15 11:00N 55°03' E 010°60'510.8
2018-Feb-15 10:30N 55°09' E 010°59'611.5
2018-Feb-15 10:00N 55°13' E 011°06'611.0
2018-Feb-15 09:27N 55°19' E 011°02'91 9.4
2018-Feb-14 23:41N 56°46' E 011°51'710.5
2018-Feb-14 23:01N 56°53' E 011°47'310.3
2018-Feb-14 22:44N 56°56' E 011°46'210.4
2018-Feb-14 22:30N 56°58' E 011°44'510.3
2018-Feb-14 22:00N 57°03' E 011°41'510.9
2018-Feb-14 21:30N 57°08' E 011°37'510.9
2018-Feb-14 21:00N 57°13' E 011°34'511.0
2018-Feb-14 20:30N 57°18' E 011°31'611.5
2018-Feb-14 20:00N 57°23' E 011°27'611.7
2018-Feb-14 19:30N 57°29' E 011°22'611.5
2018-Feb-14 19:00N 57°33' E 011°14'611.2
2018-Feb-14 18:30N 57°36' E 011°06'611.6
2018-Feb-14 18:00N 57°40' E 010°59'510.2
2018-Feb-14 17:30N 57°44' E 010°51'4 8.7
2018-Feb-14 17:00N 57°47' E 010°46'5 9.9
2018-Feb-14 16:30N 57°48' E 010°36'510.1
2018-Feb-14 16:00N 57°48' E 010°27'5 9.9
2018-Feb-14 15:30N 57°49' E 010°18'5 9.8
2018-Feb-14 15:00N 57°49' E 010°09'8010.6
2018-Feb-14 07:29N 57°07' E 008°03'34013.0
2018-Feb-13 05:18N 52°19' E 002°50'612.6
2018-Feb-13 04:51N 52°14' E 002°46'412.8
2018-Feb-13 04:30N 52°10' E 002°44'713.0
2018-Feb-13 03:59N 52°04' E 002°40'1313.3
2018-Feb-13 03:02N 51°51' E 002°36'113.5
2018-Feb-13 02:58N 51°50' E 002°35'613.2
2018-Feb-13 02:30N 51°44' E 002°32'713.6
2018-Feb-13 01:58N 51°39' E 002°24'613.9
2018-Feb-13 01:30N 51°34' E 002°18'714.2
2018-Feb-13 01:00N 51°28' E 002°11'714.2
2018-Feb-13 00:30N 51°22' E 002°07'713.7
2018-Feb-13 00:00N 51°15' E 002°04'714.4
2018-Feb-12 23:31N 51°11' E 001°55'714.6
2018-Feb-12 23:00N 51°07' E 001°46'815.1
2018-Feb-12 22:31N 51°01' E 001°37'815.7
2018-Feb-12 22:00N 50°55' E 001°29'814.5
2018-Feb-12 21:28N 50°48' E 001°25'1013.1
2018-Feb-12 20:43N 50°39' E 001°17'3913.3
2018-Feb-12 17:49N 50°23' E 000°22'413.7
2018-Feb-12 17:31N 50°22' E 000°16'713.4
2018-Feb-12 17:01N 50°20' E 000°05'713.1
2018-Feb-12 16:30N 50°18' W 000°04'612.7
2018-Feb-12 16:00N 50°16' W 000°14'612.4
2018-Feb-12 15:31N 50°14' W 000°23'612.2
2018-Feb-12 15:00N 50°12' W 000°32'611.7
2018-Feb-12 14:30N 50°10' W 000°41'510.8
2018-Feb-12 13:59N 50°11' W 000°50'611.0
2018-Feb-12 13:29N 50°09' W 000°58'510.7
2018-Feb-12 13:00N 50°08' W 001°06'510.4
2018-Feb-12 12:30N 50°07' W 001°13'510.2
2018-Feb-12 12:00N 50°05' W 001°21'5 9.7
2018-Feb-12 11:30N 50°04' W 001°28'5 9.7
2018-Feb-12 11:00N 50°02' W 001°36'510.0
2018-Feb-12 10:30N 50°01' W 001°43'510.4
2018-Feb-12 10:00N 49°60' W 001°51'511.0
2018-Feb-12 09:30N 49°59' W 001°59'611.4
2018-Feb-12 09:00N 49°57' W 002°08'2512.4
2018-Feb-12 07:01N 49°51' W 002°45'1512.7
2018-Feb-12 05:50N 49°47' W 003°07'412.7
2018-Feb-12 05:30N 49°45' W 003°13'612.5
2018-Feb-12 05:00N 49°42' W 003°21'6712.1
2018-Feb-11 23:27N 49°06' W 004°49'611.4
2018-Feb-11 22:54N 49°03' W 004°57'811.2
2018-Feb-11 22:10N 48°59' W 005°08'210.9
2018-Feb-11 22:00N 48°58' W 005°10'610.8
2018-Feb-11 21:27N 48°54' W 005°18'510.5
2018-Feb-11 21:00N 48°52' W 005°24'510.3
2018-Feb-11 20:29N 48°49' W 005°31'510.2
2018-Feb-11 20:00N 48°46' W 005°37'5 8.9
2018-Feb-11 19:26N 48°42' W 005°40'4 8.9
2018-Feb-11 18:56N 48°38' W 005°42'4 8.8
2018-Feb-11 18:27N 48°34' W 005°45'5 8.9
2018-Feb-11 17:57N 48°29' W 005°47'5 8.7
2018-Feb-11 17:20N 48°25' W 005°50'5 9.1
2018-Feb-11 16:50N 48°20' W 005°53'5 8.5
2018-Feb-11 16:14N 48°15' W 005°55'3 8.8
2018-Feb-11 15:56N 48°13' W 005°57'  
Track history (hours):
 
Tides and Currents Weather Stations Pressure Air Temp Water Temp Dewpoint Dewpoint Depression Visibility Wind Speed Wind Dir Waves Ship Positions

Maersk Tangier

Last reported at 2018-Feb-16 09:50 UTC. Time now 2018-Feb-19 20:10 UTC.
Position N 55°50' E 017°02'.

Length 183 m; draft 10.3 m.

Type: Tanker. MMSI: 565036000.

Date/timePositionNaut miles runAvg speedWind from/ knotsBaromVisibWave heightAir tempDewpointWater temp
2018-Feb-16 09:50N 55°50' E 017°02'412.7
2018-Feb-16 09:30N 55°48' E 016°54'612.6
2018-Feb-16 09:00N 55°47' E 016°43'613.0
2018-Feb-16 08:30N 55°45' E 016°32'713.0
2018-Feb-16 08:00N 55°44' E 016°21'713.1
2018-Feb-16 07:30N 55°42' E 016°10'713.1
2018-Feb-16 07:00N 55°41' E 015°59'713.0
2018-Feb-16 06:30N 55°39' E 015°47'612.9
2018-Feb-16 06:00N 55°37' E 015°36'612.8
2018-Feb-16 05:30N 55°35' E 015°26'612.8
2018-Feb-16 05:00N 55°33' E 015°15'612.8
2018-Feb-16 04:30N 55°30' E 015°05'612.8
2018-Feb-16 04:00N 55°27' E 014°55'612.7
2018-Feb-16 03:30N 55°25' E 014°44'612.4
2018-Feb-16 03:00N 55°21' E 014°36'612.8
2018-Feb-16 02:30N 55°16' E 014°29'612.6
2018-Feb-16 02:00N 55°11' E 014°22'612.6
2018-Feb-16 01:30N 55°06' E 014°16'612.3
2018-Feb-16 01:00N 55°01' E 014°09'2212.0
2018-Feb-15 23:09N 54°54' E 013°32'2712.0
2018-Feb-15 20:54N 54°46' E 012°48'4 9.0
2018-Feb-15 20:30N 54°44' E 012°42'510.3
2018-Feb-15 20:00N 54°42' E 012°34'1612.5
2018-Feb-15 18:45N 54°31' E 012°15'313.1
2018-Feb-15 18:30N 54°28' E 012°13'611.4
2018-Feb-15 18:00N 54°25' E 012°05'1112.5
2018-Feb-15 17:07N 54°25' E 011°46'212.7
2018-Feb-15 16:59N 54°26' E 011°43'612.7
2018-Feb-15 16:30N 54°29' E 011°34'612.4
2018-Feb-15 16:00N 54°31' E 011°24'611.9
2018-Feb-15 15:30N 54°34' E 011°15'612.1
2018-Feb-15 15:00N 54°35' E 011°05'612.0
2018-Feb-15 14:30N 54°37' E 010°55'5 9.9
2018-Feb-15 14:00N 54°40' E 010°49'2 4.4
2018-Feb-15 13:30N 54°42' E 010°46'510.0
2018-Feb-15 13:00N 54°47' E 010°49'5 9.3
2018-Feb-15 12:30N 54°51' E 010°50'4 7.5
2018-Feb-15 12:00N 54°55' E 010°52'5 9.0
2018-Feb-15 11:30N 54°58' E 010°57'510.8
2018-Feb-15 11:00N 55°03' E 010°60'510.8
2018-Feb-15 10:30N 55°09' E 010°59'611.5
2018-Feb-15 10:00N 55°13' E 011°06'611.0
2018-Feb-15 09:27N 55°19' E 011°02'91 9.4
2018-Feb-14 23:41N 56°46' E 011°51'710.5
2018-Feb-14 23:01N 56°53' E 011°47'310.3
2018-Feb-14 22:44N 56°56' E 011°46'210.4
2018-Feb-14 22:30N 56°58' E 011°44'510.3
2018-Feb-14 22:00N 57°03' E 011°41'510.9
2018-Feb-14 21:30N 57°08' E 011°37'510.9
2018-Feb-14 21:00N 57°13' E 011°34'511.0
2018-Feb-14 20:30N 57°18' E 011°31'611.5
2018-Feb-14 20:00N 57°23' E 011°27'611.7
2018-Feb-14 19:30N 57°29' E 011°22'611.5
2018-Feb-14 19:00N 57°33' E 011°14'611.2
2018-Feb-14 18:30N 57°36' E 011°06'611.6
2018-Feb-14 18:00N 57°40' E 010°59'510.2
2018-Feb-14 17:30N 57°44' E 010°51'4 8.7
2018-Feb-14 17:00N 57°47' E 010°46'5 9.9
2018-Feb-14 16:30N 57°48' E 010°36'510.1
2018-Feb-14 16:00N 57°48' E 010°27'5 9.9
2018-Feb-14 15:30N 57°49' E 010°18'5 9.8
2018-Feb-14 15:00N 57°49' E 010°09'8010.6
2018-Feb-14 07:29N 57°07' E 008°03'34013.0
2018-Feb-13 05:18N 52°19' E 002°50'612.6
2018-Feb-13 04:51N 52°14' E 002°46'412.8
2018-Feb-13 04:30N 52°10' E 002°44'713.0
2018-Feb-13 03:59N 52°04' E 002°40'1313.3
2018-Feb-13 03:02N 51°51' E 002°36'113.5
2018-Feb-13 02:58N 51°50' E 002°35'613.2
2018-Feb-13 02:30N 51°44' E 002°32'713.6
2018-Feb-13 01:58N 51°39' E 002°24'613.9
2018-Feb-13 01:30N 51°34' E 002°18'714.2
2018-Feb-13 01:00N 51°28' E 002°11'714.2
2018-Feb-13 00:30N 51°22' E 002°07'713.7
2018-Feb-13 00:00N 51°15' E 002°04'714.4
2018-Feb-12 23:31N 51°11' E 001°55'714.6
2018-Feb-12 23:00N 51°07' E 001°46'815.1
2018-Feb-12 22:31N 51°01' E 001°37'815.7
2018-Feb-12 22:00N 50°55' E 001°29'814.5
2018-Feb-12 21:28N 50°48' E 001°25'1013.1
2018-Feb-12 20:43N 50°39' E 001°17'3913.3
2018-Feb-12 17:49N 50°23' E 000°22'413.7
2018-Feb-12 17:31N 50°22' E 000°16'713.4
2018-Feb-12 17:01N 50°20' E 000°05'713.1
2018-Feb-12 16:30N 50°18' W 000°04'612.7
2018-Feb-12 16:00N 50°16' W 000°14'612.4
2018-Feb-12 15:31N 50°14' W 000°23'612.2
2018-Feb-12 15:00N 50°12' W 000°32'611.7
2018-Feb-12 14:30N 50°10' W 000°41'510.8
2018-Feb-12 13:59N 50°11' W 000°50'611.0
2018-Feb-12 13:29N 50°09' W 000°58'510.7
2018-Feb-12 13:00N 50°08' W 001°06'510.4
2018-Feb-12 12:30N 50°07' W 001°13'510.2
2018-Feb-12 12:00N 50°05' W 001°21'5 9.7
2018-Feb-12 11:30N 50°04' W 001°28'5 9.7
2018-Feb-12 11:00N 50°02' W 001°36'510.0
2018-Feb-12 10:30N 50°01' W 001°43'510.4
2018-Feb-12 10:00N 49°60' W 001°51'511.0
2018-Feb-12 09:30N 49°59' W 001°59'611.4
2018-Feb-12 09:00N 49°57' W 002°08'2512.4
2018-Feb-12 07:01N 49°51' W 002°45'1512.7
2018-Feb-12 05:50N 49°47' W 003°07'412.7
2018-Feb-12 05:30N 49°45' W 003°13'612.5
2018-Feb-12 05:00N 49°42' W 003°21'6712.1
2018-Feb-11 23:27N 49°06' W 004°49'611.4
2018-Feb-11 22:54N 49°03' W 004°57'811.2
2018-Feb-11 22:10N 48°59' W 005°08'210.9
2018-Feb-11 22:00N 48°58' W 005°10'610.8
2018-Feb-11 21:27N 48°54' W 005°18'510.5
2018-Feb-11 21:00N 48°52' W 005°24'510.3
2018-Feb-11 20:29N 48°49' W 005°31'510.2
2018-Feb-11 20:00N 48°46' W 005°37'5 8.9
2018-Feb-11 19:26N 48°42' W 005°40'4 8.9
2018-Feb-11 18:56N 48°38' W 005°42'4 8.8
2018-Feb-11 18:27N 48°34' W 005°45'5 8.9
2018-Feb-11 17:57N 48°29' W 005°47'5 8.7
2018-Feb-11 17:20N 48°25' W 005°50'5 9.1
2018-Feb-11 16:50N 48°20' W 005°53'5 8.5
2018-Feb-11 16:14N 48°15' W 005°55'3 8.8
2018-Feb-11 15:56N 48°13' W 005°57'  

Dump ship's entire track history